Tiempo atmosférico en la estación meteorológica de Écija, Sevilla (130 m.)



Fecha
DESCASC
Temp. máxima en grados centígrados (hora)
DESCASC
Temp. mínima en grados centígrados (hora)
DESCASC
Temp. media en grados centígrados
DESCASC
Racha de viento máxima en m/sg (hora)
DESCASC
Velocidad máxima media en intervalos de 10 minutos(hora)
DESCASC
Precipitaciones diarias en mm
DESCASC
Precipitaciones de 00:00 a 06:00 en mm
DESCASC
Precipitaciones de 06:00 a 12:00 en mm
DESCASC
Precipitaciones de 12:00 a 18:00 en mm
DESCASC
Precipitaciones de 18:00 a 24:00 en mm
DESCASC
28-02-2021 18.8 (14:30) 7 (07:50) 12.9 7.5 (16:40) 4.44 (17:20) 0 0 0 0 0
27-02-2021 16.9 (14:50) 7.3 (06:30) 12.1 6.11 (22:40) 4.17 (21:20) 0 0 0 0 0
26-02-2021 19.5 (15:30) 10.6 (23:50) 15.1 6.11 (14:00) 4.17 (21:00) 0 0 0 0 0
25-02-2021 17.9 (13:50) 9.5 (00:00) 13.7 8.89 (03:50) 5.83 (03:30) 0 0 0 0 0
24-02-2021 19.5 (14:00) 6.1 (00:00) 12.8 9.72 (16:20) 6.39 (16:10) 0 0 0 0 0
23-02-2021 19.6 (17:00) 4.1 (00:00) 11.9 6.39 (12:20) 4.17 (17:30) 0 0 0 0 0
22-02-2021 17.1 (16:50) 4.9 (00:00) 11 8.33 (00:10) 5.28 (00:10) 0 0 0 0 0
21-02-2021 15.2 (03:40) 9.7 (00:00) 12.4 13.06 (11:40) 7.5 (12:00) 10.1 0 1.3 8.8 0
20-02-2021 21.6 (14:00) 5.7 (00:00) 13.7 12.5 (21:40) 7.22 (21:40) 0 0 0 0 0
19-02-2021 19.2 (15:30) 7.2 (00:00) 13.2 6.94 (17:10) 5 (17:10) 0.2 0.1 0.1 0 0
18-02-2021 17.8 (18:00) 5.7 (00:00) 11.7 6.67 (13:00) 4.17 (14:20) 0 0 0 0 0
17-02-2021 24.4 (16:50) 4.8 (00:00) 14.6 4.17 (13:40) 3.06 (19:30) 0 0 0 0 0
16-02-2021 22.4 (16:10) 6.9 (00:00) 14.6 7.22 (00:50) 4.44 (02:30) 0 0 0 0 0
15-02-2021 -- (--) -- (--) -- -- (--) -- (--) -- -- -- 0 0
14-02-2021 -- (--) -- (--) -- -- (--) -- (--) -- -- -- -- --
13-02-2021 -- (--) -- (--) -- -- (--) -- (--) -- -- -- -- --
12-02-2021 -- (--) -- (--) -- -- (--) -- (--) -- -- -- -- --
11-02-2021 -- (--) -- (--) -- -- (--) -- (--) -- -- -- -- --
10-02-2021 -- (--) -- (--) -- -- (--) -- (--) -- 0 0.4 -- --
09-02-2021 16.4 (13:20) 11.2 (00:00) 13.8 18.06 (15:00) 11.39 (14:50) 7.2 0.1 0.1 2.3 4.7
08-02-2021 16.4 (13:30) 11.6 (00:00) 14 17.78 (05:50) 12.78 (06:00) 9.9 6.4 2.7 0.3 0.5
07-02-2021 15.3 (14:50) 10.4 (00:00) 12.8 11.67 (16:50) 6.39 (15:20) 0 0 0 0 0
06-02-2021 15.9 (14:50) 9.9 (00:00) 12.9 10.83 (14:20) 7.22 (17:20) 1.7 1.2 0.4 0.1 0
05-02-2021 17.6 (14:50) 8.5 (00:00) 13.1 5.83 (14:30) 3.33 (12:20) 0.1 0 0 0 0.1
04-02-2021 19.2 (14:30) 10.6 (00:00) 14.9 8.33 (15:00) 4.72 (15:00) 0 0 0 0 0
03-02-2021 18.7 (16:10) 8.8 (00:00) 13.8 4.72 (15:50) 2.5 (22:50) 0 0 0 0 0
02-02-2021 18.9 (16:30) 9 (01:50) 13.9 3.61 (13:20) 1.67 (13:30) 0 0 0 0 0
01-02-2021 19.3 (14:50) 10.4 (00:00) 14.8 10 (01:40) 6.39 (00:10) 0 0 0 0 0
31-01-2021 17.5 (14:50) 10.2 (00:00) 13.8 12.22 (22:40) 8.61 (19:50) 0 0 0 0 0
30-01-2021 19.3 (16:00) 11.1 (00:00) 15.2 13.06 (16:20) 8.33 (12:10) 0.2 0 0.2 0 0

Gráficas

Temp. máximas Temp. mínimas Temp. medias Precipitaciones Rachas de viento máximas Velocidades máximas media en intervalos de 10 minutos

Datos horarios

Fecha y hora oficial Temperatura (ºC) Velocidad del viento (km/h) Dirección del viento Racha (km/h) Dirección de racha Precipitación (mm) Presión (hPa) Tendencia (hPa) Humedad (%)
2021-02-28 23:00:00 10.6 10 Sudoeste 13 Sur 0 1002.7 -- 81
2021-02-28 22:00:00 11.8 0 Calma 12 Sudoeste 0 1002 -- 73
2021-02-28 21:00:00 13.3 9 Sudoeste 18 Sudoeste 0 1001.9 -- 68
2021-02-28 20:00:00 14.1 14 Sudoeste 20 Sudoeste 0 1001.6 -- 62
2021-02-28 19:00:00 14.9 13 Sudoeste 19 Sudoeste 0 1001.5 -- 58
2021-02-28 18:00:00 17.1 12 Sudoeste 21 Sudoeste 0 1001.3 -- 51
2021-02-28 17:00:00 18.7 9 Sur 27 Sudoeste 0 1001.3 -- 49
2021-02-28 16:00:00 18.1 10 Sur 24 Sur 0 1001.4 -- 51
2021-02-28 15:00:00 18.5 5 Este 18 Sudeste 0 1001.9 -- 49
2021-02-28 14:00:00 18 12 Este 22 Este 0 1002.9 -- 49
2021-02-28 13:00:00 17.9 14 Este 24 Este 0 1003.8 -- 49
2021-02-28 12:00:00 16.6 14 Este 21 Este 0 1004.4 -- 57
2021-02-28 11:00:00 14.4 11 Este 17 Este 0 1004.9 -- 68
2021-02-28 10:00:00 11.3 7 Este 12 Este 0 1005 -- 85
2021-02-28 09:00:00 8.6 0 Calma 7 Sudeste 0 1004.8 -- 89
2021-02-28 08:00:00 7.1 0 Calma 5 Sudeste 0 1004.3 -- 89
2021-02-28 07:00:00 7.7 3 Sudeste 8 Sudeste 0 1004.4 -- 89
2021-02-28 06:00:00 7.6 0 Calma 7 Sudeste 0 1004.4 -- 88
2021-02-28 05:00:00 7.8 0 Calma 9 Sudoeste 0 1004.5 -- 86
2021-02-28 04:00:00 8.4 0 Calma 4 Norte 0 1004.8 -- 85
2021-02-28 03:00:00 8.8 0 Calma 3 Nordeste 0 1005.1 -- 84
2021-02-28 02:00:00 9.4 0 Calma 4 Sudeste 0 1005.5 -- 83
2021-02-28 01:00:00 9.8 4 Sudeste 6 Sudeste 0 1005.5 -- 79
2021-02-28 00:00:00 10.7 0 Calma 17 Sudoeste 0 1005.5 -- 77
2021-02-27 23:00:00 11.6 12 Sudoeste 22 Sur 0 1005.6 -- 75
2021-02-27 22:00:00 12.1 12 Sudoeste 21 Sudoeste 0 1005.5 -- 72
2021-02-27 21:00:00 12.7 10 Sudoeste 18 Sudoeste 0 1005.2 -- 72
2021-02-27 20:00:00 12.8 6 Sudoeste 9 Sudoeste 0 1005.2 -- 69
2021-02-27 19:00:00 14.2 7 Sudoeste 12 Sur 0 1005 -- 67
2021-02-27 18:00:00 16.1 5 Sudeste 13 Este 0 1005.2 -- 65
2021-02-27 17:00:00 16.4 9 Este 14 Este 0 1005.5 -- 63
2021-02-27 16:00:00 16.5 9 Este 17 Este 0 1005.8 -- 59
2021-02-27 15:00:00 16.8 9 Este 17 Este 0 1006.3 -- 57
2021-02-27 14:00:00 16.4 8 Este 17 Sudeste 0 1007.4 -- 62
2021-02-27 13:00:00 15.7 6 Sudeste 16 Sudeste 0 1008.2 -- 69
2021-02-27 12:00:00 13.7 3 Nordeste 6 Este 0 1008.9 -- 80
2021-02-27 11:00:00 11.7 0 Calma 5 Este 0 1009.3 -- 90
2021-02-27 10:00:00 9.6 0 Calma 3 Este 0 1009.5 -- 90
2021-02-27 09:00:00 8.4 0 Calma 5 Sur 0 1009.5 -- 90
2021-02-27 08:00:00 7.8 0 Calma -- -- 0 1009 -- 90
2021-02-27 07:00:00 7.6 0 Calma -- -- 0 1008.9 -- 89
2021-02-27 06:00:00 7.8 0 Calma 5 Norte 0 1008.8 -- 89
2021-02-27 05:00:00 8.5 4 Norte 6 Noroeste 0 1009.1 -- 89
2021-02-27 04:00:00 8.3 0 Calma 6 Sudeste 0 1009.3 -- 88
2021-02-27 03:00:00 8.9 3 Sudeste 10 Sur 0 1009.8 -- 86
2021-02-27 02:00:00 9.6 6 Sur 9 Sudeste 0 1010.1 -- 84
2021-02-27 01:00:00 10.4 5 Sur 8 Sur 0 1010.1 -- 83
2021-02-27 00:00:00 10.6 5 Sur 12 Sudoeste 0 1010.4 -- 79
2021-02-26 23:00:00 12.1 10 Sudoeste 18 Sudoeste 0 1010.3 -- 75
2021-02-26 22:00:00 12.9 13 Sudoeste 20 Sudoeste 0 1009.8 -- 72
2021-02-26 21:00:00 13.8 15 Sudoeste 19 Sudoeste 0 1009.6 -- 67
2021-02-26 20:00:00 14.5 11 Sudoeste 17 Sudoeste 0 1009.3 -- 64
2021-02-26 19:00:00 15.4 10 Sudoeste 16 Sudoeste 0 1009.1 -- 61
2021-02-26 18:00:00 17.3 12 Sudoeste 15 Sudoeste 0 1008.9 -- 54
2021-02-26 17:00:00 19.1 6 Sudoeste 12 Oeste 0 1009 -- 51
2021-02-26 16:00:00 19 6 Sudoeste 19 Sudoeste 0 1009.1 -- 52
2021-02-26 15:00:00 18.8 8 Sudoeste 18 Sur 0 1009.7 -- 56
2021-02-26 14:00:00 17.9 13 Sudoeste 22 Sudoeste 0 1010.5 -- 58
2021-02-26 13:00:00 17.9 12 Sur 18 Sudoeste 0 1011.2 -- 62
2021-02-26 12:00:00 16 2 Este 8 Este 0 1011.5 -- 70
2021-02-26 11:00:00 13.7 4 Nordeste 8 Este 0 1011.4 -- 80
2021-02-26 10:00:00 11.9 0 Calma 6 Norte 0 1011.3 -- 88
2021-02-26 09:00:00 11.2 4 Sudoeste 9 Sudoeste 0 1010.5 -- 88
2021-02-26 08:00:00 10.9 0 Calma 3 Norte 0 1010 -- 87
2021-02-26 07:00:00 11.2 4 Norte 6 Norte 0 1009.2 -- 86
2021-02-26 06:00:00 11 3 Noroeste 4 Noroeste 0 1009.1 -- 86
2021-02-26 05:00:00 11 0 Calma 5 Norte 0 1009.2 -- 85
2021-02-26 04:00:00 11.4 0 Calma 4 Noroeste 0 1009.5 -- 85
2021-02-26 03:00:00 11.2 0 Calma 8 Noroeste 0 1009.8 -- 83
2021-02-26 02:00:00 11.6 0 Calma 4 Noroeste 0 1009.7 -- 80
2021-02-26 01:00:00 12.3 0 Calma 5 Oeste 0 1010.2 -- 79
2021-02-26 00:00:00 12.4 2 Este 5 Sudoeste 0 1010.5 -- 79
2021-02-25 23:00:00 12.3 0 Calma 4 Nordeste 0 1010.4 -- 75
2021-02-25 22:00:00 12.5 3 Nordeste 10 Norte 0 1010.3 -- 72
2021-02-25 21:00:00 13.2 5 Noroeste 7 Noroeste 0 1010 -- 68
2021-02-25 20:00:00 14.4 0 Calma 22 Sur 0 1010 -- 64
2021-02-25 19:00:00 15.5 16 Sur 26 Sur 0 1009.8 -- 59
2021-02-25 18:00:00 16.4 13 Sudeste 24 Sudeste 0 1009.7 -- 60
2021-02-25 17:00:00 17 14 Sudeste 26 Sur 0 1009.6 -- 60
2021-02-25 16:00:00 17.4 13 Sur 28 Sudeste 0 1009.8 -- 60
2021-02-25 15:00:00 17.4 18 Sur 30 Sur 0 1010.1 -- 59
2021-02-25 14:00:00 17.5 14 Sur 25 Sudoeste 0 1010.8 -- 60
2021-02-25 13:00:00 17.5 6 Sudeste 12 Sudeste 0 1011.6 -- 60
2021-02-25 12:00:00 16.5 5 Este 10 Nordeste 0 1011.9 -- 60
2021-02-25 11:00:00 14.8 5 Nordeste 9 Este 0 1012.3 -- 68
2021-02-25 10:00:00 12.2 2 Nordeste 8 Norte 0 1012.2 -- 79
2021-02-25 09:00:00 10.4 5 Norte 12 Noroeste 0 1012.2 -- 83
2021-02-25 08:00:00 9.7 4 Norte 8 Noroeste 0 1011.2 -- 79
2021-02-25 07:00:00 10.1 4 Norte 9 Sudoeste 0 1010.9 -- 77
2021-02-25 06:00:00 10.8 2 Nordeste 12 Norte 0 1010.8 -- 75
2021-02-25 05:00:00 11.9 3 Nordeste 11 Norte 0 1010.6 -- 70
2021-02-25 04:00:00 13.6 8 Sudeste 32 Sudeste 0 1010.6 -- 64
2021-02-25 03:00:00 13.5 13 Sur 22 Sur 0 1011 -- 67
2021-02-25 02:00:00 13.3 11 Sudeste 21 Sur 0 1011.7 -- 69
2021-02-25 01:00:00 12.1 8 Sur 15 Sudeste 0 1012 -- 72
2021-02-25 00:00:00 13.3 12 Sur 33 Sur 0 1012.2 -- 70
2021-02-24 23:00:00 13 16 Sur 27 Sur 0 1012.3 -- 74
2021-02-24 22:00:00 11.5 3 Sur 13 Sudoeste 0 1012.1 -- 75
2021-02-24 21:00:00 12.1 11 Sudoeste 14 Sudoeste 0 1011.6 -- 72
2021-02-24 20:00:00 13.3 6 Sur 19 Sur 0 1011.5 -- 67
2021-02-24 19:00:00 15.2 13 Sur 30 Sur 0 1011.8 -- 59
2021-02-24 18:00:00 17.2 21 Sur 32 Sur 0 1011.8 -- 54
2021-02-24 17:00:00 18.6 18 Sur 35 Sur 0 1011.7 -- 53
2021-02-24 16:00:00 18.9 22 Sur 33 Sur 0 1012 -- 52
2021-02-24 15:00:00 19.2 20 Sur 30 Sur 0 1012.7 -- 52
2021-02-24 14:00:00 19.3 16 Sur 27 Sur 0 1013.7 -- 51
2021-02-24 13:00:00 18.2 7 Este 23 Este 0 1014.7 -- 53
2021-02-24 12:00:00 16.3 9 Este 16 Sudeste 0 1015.2 -- 59
2021-02-24 11:00:00 13.3 8 Este 13 Este 0 1016 -- 69
2021-02-24 10:00:00 10.7 4 Nordeste 8 Norte 0 1016 -- 79
2021-02-24 09:00:00 7.6 5 Noroeste 7 Noroeste 0 1015.9 -- 86
2021-02-24 08:00:00 6.2 0 Calma 5 Este 0 1015.8 -- 86
2021-02-24 07:00:00 7 2 Sudeste 10 Sur 0 1015.3 -0.9 86
2021-02-24 06:00:00 6.9 5 Sur 18 Sudeste 0 1015.4 -1.3 86
2021-02-24 05:00:00 6.9 6 Sudeste 11 Sudeste 0 1015.9 -- 85
2021-02-24 04:00:00 7.1 6 Este 10 Sudeste 0 1016.2 -- 83
2021-02-24 03:00:00 8.2 3 Norte 6 Norte 0 1016.7 -- 80
2021-02-24 02:00:00 8.8 0 Calma 8 Noroeste 0 1016.8 -0.1 79
2021-02-24 01:00:00 8.9 5 Norte 9 Noroeste 0 1017.2 -- 79
2021-02-24 00:00:00 8.7 0 Calma 8 Sudeste 0 1017.2 -- 81
2021-02-23 23:00:00 9.4 8 Sur 15 Sudoeste 0 1016.9 -- 78
2021-02-23 22:00:00 10.5 13 Sudoeste 16 Sudoeste 0 1016.5 -- 73
2021-02-23 21:00:00 11.2 9 Sudoeste 20 Sudoeste 0 1016.5 1.4 63
2021-02-23 20:00:00 13.2 13 Sudoeste 19 Sudoeste 0 1016.2 -- 56
2021-02-23 19:00:00 14.7 8 Sudoeste 17 Sudoeste 0 1015.5 -- 52
2021-02-23 18:00:00 17.5 13 Sur 21 Sur 0 1015.1 -- 42
2021-02-23 17:00:00 19.6 4 Este 16 Este 0 1015.1 -- 37
2021-02-23 16:00:00 19.1 3 Sudeste 13 Este 0 1015 -- 37
2021-02-23 15:00:00 18.5 4 Este 16 Nordeste 0 1015.4 -- 42
2021-02-23 14:00:00 17.5 5 Este 14 Nordeste 0 1016 -- 44
2021-02-23 13:00:00 16.2 9 Este 23 Este 0 1016.7 -- 52
2021-02-23 12:00:00 14.5 5 Norte 13 Norte 0 1017 -- 67
2021-02-23 11:00:00 11.8 0 Calma 8 Nordeste 0 1017 -- 78
2021-02-23 10:00:00 8.7 0 Calma 5 Sudeste 0 1016.6 -- 89
2021-02-23 09:00:00 6.1 0 Calma 5 Este 0 1016 -- 90
2021-02-23 08:00:00 4.3 0 Calma 4 Nordeste 0 1015.1 -- 90
2021-02-23 07:00:00 4.6 2 Oeste 4 Sudoeste 0 1014.3 -- 90
2021-02-23 06:00:00 4.9 0 Calma 6 Sudeste 0 1013.8 -- 90
2021-02-23 05:00:00 5.1 4 Sudeste 8 Sudeste 0 1013.6 -- 89
2021-02-23 04:00:00 5.7 2 Sudeste 7 Sur 0 1013.3 -- 89
2021-02-23 03:00:00 5.5 5 Sur 10 Sudeste 0 1013.2 -- 88
2021-02-23 02:00:00 6.3 5 Sudeste 8 Sur 0 1013.2 -- 86
2021-02-23 01:00:00 7.5 3 Sur 5 Sur 0 1012.7 -- 85
2021-02-23 00:00:00 8.1 2 Sur 9 Sudeste 0 1012.6 -- 85
2021-02-22 23:00:00 8.1 6 Sudeste 14 Sudoeste 0 1011.7 -- 81
2021-02-22 22:00:00 9.1 8 Sudoeste 10 Sudoeste 0 1010.7 -- 76
2021-02-22 21:00:00 11.5 6 Oeste 13 Oeste 0 1009.9 -- 69
2021-02-22 20:00:00 12.2 7 Oeste 13 Sudoeste 0 1009.5 -- 65
2021-02-22 19:00:00 14.3 6 Oeste 22 Oeste 0 1008.5 -- 54
2021-02-22 18:00:00 16.1 12 Oeste 27 Oeste 0 1007.6 -- 47
2021-02-22 17:00:00 16.9 12 Oeste 27 Oeste 0 1007.3 -- 46
2021-02-22 16:00:00 16.6 12 Oeste 30 Oeste 0 1007.1 -- 45
2021-02-22 15:00:00 16.2 12 Oeste 24 Oeste 0 1007.1 -- 44
2021-02-22 14:00:00 15.5 14 Noroeste 22 Oeste 0 1007.4 -- 46
2021-02-22 13:00:00 14.7 6 Oeste 18 Oeste 0 1007.7 -- 49
2021-02-22 12:00:00 13.6 9 Oeste 18 Oeste 0 1007.7 -- 57
2021-02-22 11:00:00 12.1 2 Este 7 Este 0 1007.5 -- 73
2021-02-22 10:00:00 9 0 Calma 8 Sudeste 0 1006.9 -- 85
2021-02-22 09:00:00 6.2 3 Sudeste 12 Sudeste 0 1006.1 -- 86
2021-02-22 08:00:00 5.8 6 Sudeste 21 Sudoeste 0 1005.2 -- 86
2021-02-22 07:00:00 6.6 14 Oeste 18 Oeste 0 1004.6 1.8 85
2021-02-22 06:00:00 7.1 5 Oeste 15 Oeste 0 1004 -- 84
2021-02-22 05:00:00 7.6 13 Sudoeste 19 Oeste 0 1003.2 -- 83
2021-02-22 04:00:00 8 7 Oeste 24 Oeste 0 1002.8 -- 79
2021-02-22 03:00:00 8.6 17 Oeste 27 Oeste 0 1002.4 -- 78
2021-02-22 02:00:00 8.7 13 Oeste 27 Oeste 0 1001.7 -- 78
2021-02-22 01:00:00 9.3 13 Oeste 30 Oeste 0 1001.1 -- 77
2021-02-22 00:00:00 9.8 20 Oeste 31 Oeste 0 1000.1 -- 75
2021-02-21 23:00:00 10.3 13 Oeste 26 Oeste 0 999.3 -- 74
2021-02-21 22:00:00 10.9 15 Oeste 28 Oeste 0 998.6 3.1 72
2021-02-21 21:00:00 11.4 14 Oeste 22 Oeste 0 997.6 -- 73
2021-02-21 20:00:00 11.7 13 Oeste 19 Sudoeste 0 996.7 -- 74
2021-02-21 19:00:00 12.2 9 Oeste 32 Oeste 0 995.5 -- 72
2021-02-21 18:00:00 12.5 19 Oeste 33 Oeste 0 994.3 -- 74
2021-02-21 17:00:00 11.9 20 Oeste 47 Oeste 0.1 993.1 -- 78
2021-02-21 16:00:00 12.2 9 Norte 23 Sudoeste 0 991.5 -- 81
2021-02-21 15:00:00 12.7 16 Sudoeste 24 Oeste 3 990.9 -- 84
2021-02-21 14:00:00 12.7 10 Sur 17 Sur 2.5 990.9 -- 88
2021-02-21 13:00:00 12.4 13 Sur 28 Sudoeste 3.2 991.1 -- 86
2021-02-21 12:00:00 13 27 Sudoeste 47 Sudoeste 0.6 991.1 -- 80
2021-02-21 11:00:00 13.3 19 Sudoeste 39 Sudoeste 0.7 991.6 -- 79
2021-02-21 10:00:00 12.8 0 Calma 9 Sudeste 0 991.1 -- 70
2021-02-21 09:00:00 12.9 3 Sudeste 6 Sudeste 0 991 -- 65
2021-02-21 08:00:00 12.4 3 Sudeste 10 Sudeste 0 991.1 -- 67
2021-02-21 07:00:00 12.6 5 Sudeste 14 Sudoeste 0 991.5 -- 64
2021-02-21 06:00:00 14.3 8 Sudoeste 17 Sudoeste 0 992.1 -- 57
2021-02-21 05:00:00 14.4 17 Sudoeste 28 Sudoeste 0 992.7 -- 59
2021-02-21 04:00:00 15 19 Sudoeste 31 Sudoeste 0 992.8 -- 57
2021-02-21 03:00:00 14.9 22 Sudoeste 37 Sur 0 993 -- 58
2021-02-21 02:00:00 15.1 26 Sur 40 Sur 0 992.8 -- 62
2021-02-21 01:00:00 14.5 9 Oeste 19 Sur 0 993.4 -- 64
2021-02-21 00:00:00 13.7 7 Sur 30 Sur 0 994 -- 67
2021-02-20 23:00:00 14.6 19 Sur 40 Sur 0 994 -- 56
2021-02-20 22:00:00 15.6 25 Sur 45 Sur 0 994.2 -- 48
2021-02-20 21:00:00 15.8 24 Sur 41 Sur 0 994.6 -- 46
2021-02-20 20:00:00 15.1 14 Sudoeste 30 Sur 0 995.2 -- 45
2021-02-20 19:00:00 16.4 15 Sudoeste 33 Sur 0 995.6 -- 41
2021-02-20 18:00:00 19.2 23 Sur 34 Sur 0 995.8 -- 37
2021-02-20 17:00:00 20.5 20 Sur 31 Sur 0 996.1 -- 37
2021-02-20 16:00:00 20.7 22 Sur 33 Sudoeste 0 996.5 -- 38
2021-02-20 15:00:00 20.3 21 Sur 35 Sur 0 997.3 -- 38
2021-02-20 14:00:00 21.5 23 Sur 34 Sur 0 998.2 -- 37
2021-02-20 13:00:00 20.1 22 Sur 31 Sur 0 999.3 -- 38
2021-02-20 12:00:00 19.3 15 Sudoeste 29 Sur 0 1000.2 -- 47
2021-02-20 11:00:00 16.9 17 Sur 27 Sur 0 1000.9 -- 54
2021-02-20 10:00:00 13.1 10 Sur 17 Sur 0 1001.2 -- 80
2021-02-20 09:00:00 8 10 Sudeste 13 Sudeste 0 1001.1 0.7 89
2021-02-20 08:00:00 6.3 8 Sur 15 Sur 0 1000.7 -- 89
2021-02-20 07:00:00 6 8 Sudeste 12 Sur 0 1000.8 -- 90
2021-02-20 06:00:00 6.6 2 Sur 5 Sudeste 0 1000.4 -- 90
2021-02-20 05:00:00 6.8 0 Calma 6 Nordeste 0 1000.9 -- 90
2021-02-20 04:00:00 7.1 4 Norte 9 Sudeste 0 1001.3 -1 90
2021-02-20 03:00:00 7 7 Sudeste 11 Sudeste 0 1001.1 -- 89
2021-02-20 02:00:00 8.3 4 Sur 6 Sur 0 1001.8 -- 88
2021-02-20 01:00:00 8.4 0 Calma 9 Sudeste 0 1002.3 -- 86
2021-02-20 00:00:00 9.3 2 Sur 7 Sudoeste 0 1002.9 -- 85
2021-02-19 23:00:00 10.4 0 Calma 5 Sur 0 1003.5 0.2 84
2021-02-19 22:00:00 11.1 4 Este 13 Oeste 0 1003.5 -- 79
2021-02-19 21:00:00 12.2 0 Calma 7 Sudoeste 0 1003.1 -- 77
2021-02-19 20:00:00 13.1 6 Sudoeste 10 Sur 0 1003.3 -- 75
2021-02-19 19:00:00 14.8 6 Sudoeste 14 Oeste 0 1003.1 -- 64
2021-02-19 18:00:00 17.3 8 Oeste 25 Oeste 0 1003.1 -- 56
2021-02-19 17:00:00 18 15 Oeste 24 Oeste 0 1003.3 -0.9 56
2021-02-19 16:00:00 19 9 Oeste 20 Oeste 0 1003.2 -- 56
2021-02-19 15:00:00 18.8 12 Noroeste 19 Noroeste 0 1003.5 -- 54
2021-02-19 14:00:00 16.4 4 Noroeste 13 Noroeste 0 1004.2 -- 68
2021-02-19 13:00:00 12.6 4 Norte 12 Nordeste 0 1005.2 -- 90
2021-02-19 12:00:00 9.5 0 Calma 6 Norte 0 1006 -- 91
2021-02-19 11:00:00 8.2 2 Este 7 Este 0 1006.1 -- 91
2021-02-19 10:00:00 7.5 2 Este 7 Sudeste 0 1006.1 -- 91
2021-02-19 09:00:00 7.4 3 Sudeste 6 Sudeste 0 1005.9 -- 91
2021-02-19 08:00:00 7.7 2 Este 5 Este 0.1 1005.5 -- 91
2021-02-19 07:00:00 8.3 3 Este 7 Norte 0 1005.2 -- 91
2021-02-19 06:00:00 8.1 4 Norte 9 Norte 0 1005.2 -- 91
2021-02-19 05:00:00 7.5 2 Norte 4 Norte 0.1 1005 -- 91
2021-02-19 04:00:00 7.5 0 Calma 4 Sur 0 1005.1 -- 90
2021-02-19 03:00:00 7.8 2 Sur 5 Sur 0 1005.4 -- 90
2021-02-19 02:00:00 8.4 0 Calma 4 Sur 0 1005.5 -- 90
2021-02-19 01:00:00 8.5 0 Calma 5 Sudeste 0 1005.7 -- 89
2021-02-19 00:00:00 9.2 3 Sur 4 Sur 0 1006 -- 88
2021-02-18 23:00:00 10 4 Sur 6 Sudeste 0 1006.2 -- 85
2021-02-18 22:00:00 10.6 3 Sur 5 Sudeste 0 1006 -- 80
2021-02-18 21:00:00 12.3 0 Calma 4 Oeste 0 1005.6 -- 77
2021-02-18 20:00:00 13.8 3 Oeste 7 Oeste 0 1005.2 -- 72
2021-02-18 19:00:00 15.7 3 Oeste 9 Noroeste 0 1004.7 -- 67
2021-02-18 18:00:00 17.7 2 Oeste 9 Oeste 0 1004.5 -- 63
2021-02-18 17:00:00 17.1 5 Sudoeste 13 Sudoeste 0 1004.5 -- 68
2021-02-18 16:00:00 15.8 6 Sudoeste 17 Oeste 0 1004.6 -- 73
2021-02-18 15:00:00 14.8 7 Oeste 22 Oeste 0 1005.2 -- 74
2021-02-18 14:00:00 14.3 9 Oeste 19 Oeste 0 1005.7 -- 75
2021-02-18 13:00:00 14.5 12 Oeste 24 Noroeste 0 1006.3 -- 75
2021-02-18 12:00:00 13.9 13 Oeste 20 Oeste 0 1006.2 -- 75
2021-02-18 11:00:00 13.2 2 Nordeste 9 Nordeste 0 1006 -- 70
2021-02-18 10:00:00 10.1 0 Calma 5 Sudeste 0 1005.6 -- 89
2021-02-18 09:00:00 7.4 3 Sur 5 Sudeste 0 1005.1 -- 90
2021-02-18 08:00:00 6.5 0 Calma 3 Noroeste 0 1004.7 -- 90
2021-02-18 07:00:00 6 0 Calma 9 Sudeste 0 1004.5 -- 89
2021-02-18 06:00:00 6.5 5 Sur 7 Sudeste 0 1004.3 -- 89
2021-02-18 05:00:00 7.1 3 Sur 7 Sur 0 1004 -- 89
2021-02-18 04:00:00 7.7 3 Sur 5 Sur 0 1004.3 -- 88
2021-02-18 03:00:00 8.1 0 Calma 5 Sur 0 1004.3 -- 86
2021-02-18 02:00:00 8.8 0 Calma 4 Sur 0 1004.3 -- 85
2021-02-18 01:00:00 9.2 3 Sur 8 Sur 0 1004.4 -- 84
2021-02-18 00:00:00 10.2 3 Sudeste 9 Sur 0 1004.6 -- 81
2021-02-17 23:00:00 11.2 2 Sur 5 Sur 0 1004.7 -- 74
2021-02-17 22:00:00 12.3 3 Oeste 8 Sudoeste 0 1004.7 -- 64
2021-02-17 21:00:00 15.1 0 Calma 4 Nordeste 0 1004.4 -- 52
2021-02-17 20:00:00 17.4 6 Noroeste 12 Noroeste 0 1004.2 -- 45
2021-02-17 19:00:00 19.2 10 Noroeste 10 Noroeste 0 1003.9 -- 44
2021-02-17 18:00:00 23.1 7 Noroeste 10 Norte 0 1003.9 -- 38
2021-02-17 17:00:00 24.1 5 Norte 10 Norte 0 1004.3 -- 32
2021-02-17 16:00:00 23.7 3 Norte 13 Nordeste 0 1004.6 -- 32
2021-02-17 15:00:00 22.5 5 Nordeste 13 Este 0 1005.3 -- 36
2021-02-17 14:00:00 20.9 6 Nordeste 15 Este 0 1006.6 -- 38
2021-02-17 13:00:00 19.1 4 Nordeste 12 Este 0 1007.5 -- 49
2021-02-17 12:00:00 16.1 5 Nordeste 10 Nordeste 0 1008.5 -- 58
2021-02-17 11:00:00 12.8 4 Nordeste 6 Nordeste 0 1009 -- 79
2021-02-17 10:00:00 8.7 0 Calma 4 Noroeste 0 1009.5 -- 90
2021-02-17 09:00:00 5.8 0 Calma 5 Sur 0 1009.4 -- 90
2021-02-17 08:00:00 5.3 0 Calma -- -- 0 1009.3 -- 90
2021-02-17 07:00:00 5.9 0 Calma -- -- 0 1009.3 -- 89
2021-02-17 06:00:00 6.2 0 Calma -- -- 0 1009.4 -- 89
2021-02-17 05:00:00 6.7 0 Calma -- -- 0 1009.5 -- 89
2021-02-17 04:00:00 7.1 0 Calma -- -- 0 1009.8 -- 88
2021-02-17 03:00:00 7.8 0 Calma 5 Este 0 1010.1 -- 86
2021-02-17 02:00:00 9 0 Calma 5 Sudeste 0 1010.3 -- 86
2021-02-17 01:00:00 9.5 3 Sudeste 5 Sudeste 0 1010.4 -- 84
2021-02-17 00:00:00 10.6 3 Sur 5 Sur 0 1010.7 -- 81
2021-02-16 23:00:00 10.7 0 Calma 5 Sudoeste 0 1010.7 -- 75
2021-02-16 22:00:00 12.9 0 Calma 2 Sur 0 1010.4 -- 68
2021-02-16 21:00:00 14.4 0 Calma 10 Noroeste 0 1010.2 -- 63
2021-02-16 20:00:00 15.5 9 Noroeste 11 Noroeste 0 1010.2 -- 58
2021-02-16 19:00:00 17.8 9 Noroeste 10 Noroeste 0 1010 -- 51
2021-02-16 18:00:00 21.2 8 Norte 12 Norte 0 1009.9 -- 38
2021-02-16 17:00:00 22.1 6 Norte 12 Nordeste 0 1010.1 -- 36
2021-02-16 16:00:00 21.9 3 Nordeste 11 Sudoeste 0 1010.7 -- 37
2021-02-16 15:00:00 21.6 0 Calma 9 Este 0 1011.4 -- 40
2021-02-16 14:00:00 20 4 Este 10 Este 0 1012.1 -- 44
2021-02-16 13:00:00 18.4 4 Este 11 Este 0 1013.1 -- 48
2021-02-16 12:00:00 16.7 2 Este 10 Este 0 1013.8 -- 53
2021-02-16 11:00:00 14.4 4 Este 9 Este 0 1014 -- 62
2021-02-16 10:00:00 12.4 0 Calma 5 Sudeste 0 1013.8 -- 70
2021-02-16 09:00:00 9.1 0 Calma 9 Noroeste 0 1013.3 -- 83
2021-02-16 08:00:00 7.3 6 Noroeste 8 Noroeste 0 1012.7 -- 84
2021-02-16 07:00:00 7.7 0 Calma 4 Oeste 0 1012 -- 83
2021-02-16 06:00:00 7.8 2 Noroeste 7 Noroeste 0 1012.6 -- 82
2021-02-16 05:00:00 7.6 2 Noroeste 8 Sur 0 1012.7 -- 80
2021-02-16 04:00:00 8.6 0 Calma 18 Sur 0 1013.3 -- 74
2021-02-16 03:00:00 11 12 Sur 23 Sudoeste 0 1013.6 -- 69
2021-02-16 02:00:00 11.5 13 Sur 21 Sur 0 1013.6 -- 68
2021-02-16 01:00:00 11.7 12 Sur 26 Sur 0 1013.7 -- 69
2021-02-16 00:00:00 10.4 9 Sur 18 Sudoeste 0 1013.7 -- 72
2021-02-15 23:00:00 10.9 9 Sudoeste 13 Sudoeste 0 1014 -- 66
2021-02-15 22:00:00 11.6 0 Calma 15 Sudoeste 0 1013.6 -- 61
2021-02-15 21:00:00 12.7 8 Sudeste 31 Sudeste 0 1013.5 -- 57
2021-02-15 20:00:00 13.8 14 Sur 33 Sur 0 1013.3 -- 52
2021-02-15 19:00:00 15.4 19 Sur 36 Sur 0 1013.1 -- 47
2021-02-15 18:00:00 16.9 22 Sur 35 Sudeste 0 1013 -- 47
2021-02-15 17:00:00 18.3 22 Sur 32 Sur 0 1013.1 -- 44
2021-02-15 16:00:00 19.4 18 Sur 30 Sur 0 1013.2 -- 46
2021-02-15 15:00:00 19.4 18 Sur 32 Sur 0 1013.8 -- 46
2021-02-15 14:00:00 19.3 18 Sur 28 Sur 0 1014.4 -- 49
2021-02-15 13:00:00 18.7 14 Sudeste 32 Sudeste 0 1015.2 -- 51
2021-02-15 12:00:00 17.8 20 Sudeste 33 Sudeste 0 1015.7 -- 52
2021-02-15 11:00:00 -- -- -- -- -- -- -- -- --
2021-02-15 10:00:00 -- -- -- -- -- -- -- -- --
2021-02-15 09:00:00 -- -- -- -- -- -- -- -- --
2021-02-15 08:00:00 -- -- -- -- -- -- -- -- --
2021-02-15 07:00:00 -- -- -- -- -- -- -- -- --
2021-02-15 06:00:00 -- -- -- -- -- -- -- -- --
2021-02-15 05:00:00 -- -- -- -- -- -- -- -- --
2021-02-15 04:00:00 -- -- -- -- -- -- -- -- --
2021-02-15 03:00:00 -- -- -- -- -- -- -- -- --
2021-02-15 02:00:00 -- -- -- -- -- -- -- -- --
2021-02-15 01:00:00 -- -- -- -- -- -- -- -- --
2021-02-15 00:00:00 -- -- -- -- -- -- -- -- --
2021-02-14 23:00:00 -- -- -- -- -- -- -- -- --
2021-02-14 22:00:00 -- -- -- -- -- -- -- -- --
2021-02-14 21:00:00 -- -- -- -- -- -- -- -- --
2021-02-14 20:00:00 -- -- -- -- -- -- -- -- --
2021-02-14 19:00:00 -- -- -- -- -- -- -- -- --
2021-02-14 18:00:00 -- -- -- -- -- -- -- -- --
2021-02-14 17:00:00 -- -- -- -- -- -- -- -- --
2021-02-14 16:00:00 -- -- -- -- -- -- -- -- --
2021-02-14 15:00:00 -- -- -- -- -- -- -- -- --
2021-02-14 14:00:00 -- -- -- -- -- -- -- -- --
2021-02-14 13:00:00 -- -- -- -- -- -- -- -- --
2021-02-14 12:00:00 -- -- -- -- -- -- -- -- --
2021-02-14 11:00:00 -- -- -- -- -- -- -- -- --
2021-02-14 10:00:00 -- -- -- -- -- -- -- -- --
2021-02-14 09:00:00 -- -- -- -- -- -- -- -- --
2021-02-14 08:00:00 -- -- -- -- -- -- -- -- --
2021-02-14 07:00:00 -- -- -- -- -- -- -- -- --
2021-02-14 06:00:00 -- -- -- -- -- -- -- -- --
2021-02-14 05:00:00 -- -- -- -- -- -- -- -- --
2021-02-14 04:00:00 -- -- -- -- -- -- -- -- --
2021-02-14 03:00:00 -- -- -- -- -- -- -- -- --
2021-02-14 02:00:00 -- -- -- -- -- -- -- -- --
2021-02-14 01:00:00 -- -- -- -- -- -- -- -- --
2021-02-14 00:00:00 -- -- -- -- -- -- -- -- --
2021-02-13 23:00:00 -- -- -- -- -- -- -- -- --
2021-02-13 22:00:00 -- -- -- -- -- -- -- -- --
2021-02-13 21:00:00 -- -- -- -- -- -- -- -- --
2021-02-13 20:00:00 -- -- -- -- -- -- -- -- --
2021-02-13 19:00:00 -- -- -- -- -- -- -- -- --
2021-02-13 18:00:00 -- -- -- -- -- -- -- -- --
2021-02-13 17:00:00 -- -- -- -- -- -- -- -- --
2021-02-13 16:00:00 -- -- -- -- -- -- -- -- --
2021-02-13 15:00:00 -- -- -- -- -- -- -- -- --
2021-02-13 14:00:00 -- -- -- -- -- -- -- -- --
2021-02-13 13:00:00 -- -- -- -- -- -- -- -- --
2021-02-13 08:00:00 -- -- -- -- -- -- -- -- --
2021-02-13 07:00:00 -- -- -- -- -- -- -- -- --
2021-02-13 06:00:00 -- -- -- -- -- -- -- -- --
2021-02-13 05:00:00 -- -- -- -- -- -- -- -- --
2021-02-13 04:00:00 -- -- -- -- -- -- -- -- --
2021-02-13 03:00:00 -- -- -- -- -- -- -- -- --
2021-02-13 02:00:00 -- -- -- -- -- -- -- -- --
2021-02-13 01:00:00 -- -- -- -- -- -- -- -- --
2021-02-13 00:00:00 -- -- -- -- -- -- -- -- --
2021-02-12 23:00:00 -- -- -- -- -- -- -- -- --
2021-02-12 22:00:00 -- -- -- -- -- -- -- -- --
2021-02-12 21:00:00 -- -- -- -- -- -- -- -- --
2021-02-12 20:00:00 -- -- -- -- -- -- -- -- --
2021-02-12 19:00:00 -- -- -- -- -- -- -- -- --
2021-02-12 18:00:00 -- -- -- -- -- -- -- -- --
2021-02-12 17:00:00 -- -- -- -- -- -- -- -- --
2021-02-12 16:00:00 -- -- -- -- -- -- -- -- --
2021-02-12 15:00:00 -- -- -- -- -- -- -- -- --
2021-02-12 14:00:00 -- -- -- -- -- -- -- -- --
2021-02-12 13:00:00 -- -- -- -- -- -- -- -- --
2021-02-12 12:00:00 -- -- -- -- -- -- -- -- --
2021-02-12 11:00:00 -- -- -- -- -- -- -- -- --
2021-02-12 10:00:00 -- -- -- -- -- -- -- -- --
2021-02-12 09:00:00 -- -- -- -- -- -- -- -- --
2021-02-12 08:00:00 -- -- -- -- -- -- -- -- --
2021-02-12 07:00:00 -- -- -- -- -- -- -- -- --
2021-02-12 06:00:00 -- -- -- -- -- -- -- -- --
2021-02-12 05:00:00 -- -- -- -- -- -- -- -- --
2021-02-12 04:00:00 -- -- -- -- -- -- -- -- --
2021-02-12 03:00:00 -- -- -- -- -- -- -- -- --
2021-02-12 02:00:00 -- -- -- -- -- -- -- -- --
2021-02-12 01:00:00 -- -- -- -- -- -- -- -- --
2021-02-12 00:00:00 -- -- -- -- -- -- -- -- --
2021-02-11 23:00:00 -- -- -- -- -- -- -- -- --
2021-02-11 22:00:00 -- -- -- -- -- -- -- -- --
2021-02-11 21:00:00 -- -- -- -- -- -- -- -- --
2021-02-11 20:00:00 -- -- -- -- -- -- -- -- --
2021-02-11 19:00:00 -- -- -- -- -- -- -- -- --
2021-02-11 18:00:00 -- -- -- -- -- -- -- -- --
2021-02-11 17:00:00 -- -- -- -- -- -- -- -- --
2021-02-11 16:00:00 -- -- -- -- -- -- -- -- --
2021-02-11 15:00:00 -- -- -- -- -- -- -- -- --
2021-02-11 14:00:00 -- -- -- -- -- -- -- -- --
2021-02-11 13:00:00 -- -- -- -- -- -- -- -- --
2021-02-11 12:00:00 -- -- -- -- -- -- -- -- --
2021-02-11 11:00:00 -- -- -- -- -- -- -- -- --
2021-02-11 10:00:00 -- -- -- -- -- -- -- -- --
2021-02-11 09:00:00 -- -- -- -- -- -- -- -- --
2021-02-11 08:00:00 -- -- -- -- -- -- -- -- --
2021-02-11 07:00:00 -- -- -- -- -- -- -- -- --
2021-02-11 06:00:00 -- -- -- -- -- -- -- -- --
2021-02-11 05:00:00 -- -- -- -- -- -- -- -- --
2021-02-11 04:00:00 -- -- -- -- -- -- -- -- --
2021-02-11 03:00:00 -- -- -- -- -- -- -- -- --
2021-02-11 02:00:00 -- -- -- -- -- -- -- -- --
2021-02-11 01:00:00 -- -- -- -- -- -- -- -- --
2021-02-11 00:00:00 -- -- -- -- -- -- -- -- --
2021-02-10 23:00:00 -- -- -- -- -- -- -- -- --
2021-02-10 22:00:00 -- -- -- -- -- -- -- -- --
2021-02-10 21:00:00 -- -- -- -- -- -- -- -- --
2021-02-10 20:00:00 -- -- -- -- -- -- -- -- --
2021-02-10 19:00:00 -- -- -- -- -- -- -- -- --
2021-02-10 18:00:00 -- -- -- -- -- -- -- -- --
2021-02-10 17:00:00 -- -- -- -- -- -- -- -- --
2021-02-10 16:00:00 -- -- -- -- -- -- -- -- --
2021-02-10 15:00:00 -- -- -- -- -- -- -- -- --
2021-02-10 14:00:00 -- -- -- -- -- -- -- -- --
2021-02-10 13:00:00 -- -- -- -- -- -- -- -- --
2021-02-10 12:00:00 -- -- -- -- -- -- -- -- --
2021-02-10 11:00:00 15.6 24 Oeste 63 Sudoeste 0.2 1000.1 -- 84
2021-02-10 10:00:00 15.5 34 Oeste 60 Sudoeste 0 999.1 -- 81
2021-02-10 09:00:00 15.2 24 Oeste 53 Sudoeste 0 998.8 -- 81
2021-02-10 08:00:00 14.9 24 Oeste 55 Oeste 0 998.4 -- 85
2021-02-10 07:00:00 14.4 30 Sudoeste 51 Oeste 0.2 997.3 -- 85
2021-02-10 06:00:00 13.9 29 Sudoeste 46 Oeste 0 997.2 -- 83
2021-02-10 05:00:00 13.9 21 Oeste 44 Oeste 0 997.6 -- 84
2021-02-10 04:00:00 14 23 Oeste 39 Sudoeste 0 997.8 -- 84
2021-02-10 03:00:00 13.6 26 Oeste 40 Sudoeste 0 997.9 -- 84
2021-02-10 02:00:00 13.4 17 Oeste 35 Oeste 0 998.1 -- 83
2021-02-10 01:00:00 14.2 18 Oeste 37 Oeste 0 997.8 -- 85
2021-02-10 00:00:00 14 18 Oeste 42 Oeste 0 997.8 -- 85
2021-02-09 23:00:00 13.7 20 Oeste 41 Oeste 0 997.1 -- 86
2021-02-09 22:00:00 13.3 19 Oeste 42 Oeste 0.4 996.6 -- 85
2021-02-09 21:00:00 14.5 21 Oeste 56 Sudoeste 4.3 996.2 -- 86
2021-02-09 20:00:00 14.9 38 Sudoeste 57 Sudoeste 0 995.7 -- 81
2021-02-09 19:00:00 14.8 29 Sudoeste 49 Sudoeste 0 995.4 -- 81
2021-02-09 18:00:00 15.1 24 Oeste 54 Sudoeste 0 995.2 -- 81
2021-02-09 17:00:00 14.9 32 Sudoeste 57 Oeste 0.3 995.1 -- 80
2021-02-09 16:00:00 14.9 34 Oeste 64 Sudoeste 1.2 995.1 -- 83
2021-02-09 15:00:00 14.9 39 Oeste 65 Oeste 0.8 995.3 -- 80
2021-02-09 14:00:00 16.3 35 Sudoeste 59 Sudoeste 0 995.5 -- 69
2021-02-09 13:00:00 15.8 37 Sudoeste 55 Sudoeste 0 996.5 -- 73
2021-02-09 12:00:00 15.6 31 Sudoeste 48 Sudoeste 0 997.4 -- 72
2021-02-09 11:00:00 14.7 29 Sudoeste 44 Sudoeste 0 997.7 -- 72
2021-02-09 10:00:00 12.9 15 Sudoeste 24 Sudoeste 0 997.7 -- 85
2021-02-09 09:00:00 11.6 10 Sur 18 Sudoeste 0 997.4 -- 85
2021-02-09 08:00:00 12.3 14 Sudoeste 33 Sudoeste 0.1 997.7 -- 85
2021-02-09 07:00:00 11.4 11 Sudoeste 26 Sudoeste 0 997.9 -- 85
2021-02-09 06:00:00 12.2 18 Sudoeste 26 Sudoeste 0 998.1 -- 84
2021-02-09 05:00:00 11.9 10 Sudoeste 19 Sudoeste 0.1 998.4 -- 89
2021-02-09 04:00:00 11.9 7 Sudoeste 17 Sudoeste 0 998.7 -- 89
2021-02-09 03:00:00 11.9 14 Sudoeste 19 Sudoeste 0 999.3 -- 88
2021-02-09 02:00:00 11.5 15 Sudoeste 19 Sudoeste 0 999.5 -- 88
2021-02-09 01:00:00 11.9 13 Oeste 24 Sudoeste 0 999.8 -- 86
2021-02-09 00:00:00 12.2 14 Sudoeste 24 Sudoeste 0 999.8 -- 85
2021-02-08 23:00:00 12.5 17 Sudoeste 28 Oeste 0 999.7 -- 83
2021-02-08 22:00:00 12.5 19 Sudoeste 34 Oeste 0 999.3 -- 82
2021-02-08 21:00:00 12.7 19 Oeste 35 Sudoeste 0 998.6 -- 80
2021-02-08 20:00:00 13.7 15 Oeste 36 Sudoeste 0 998.2 -- 79
2021-02-08 19:00:00 13.8 18 Oeste 37 Oeste 0.5 997 -- 77
2021-02-08 18:00:00 14.8 15 Oeste 32 Oeste 0 996.7 -- 73
2021-02-08 17:00:00 14.6 25 Oeste 45 Oeste 0 996 -- 65
2021-02-08 16:00:00 15.3 22 Oeste 44 Oeste 0 995.4 -- 65
2021-02-08 15:00:00 16.2 24 Oeste 41 Oeste 0.2 995.7 -- 61
2021-02-08 14:00:00 14.8 21 Oeste 46 Oeste 0.1 996.4 -- 65
2021-02-08 13:00:00 15.9 21 Oeste 41 Sudoeste 0 996.3 -- 63
2021-02-08 12:00:00 14.6 18 Oeste 35 Sudoeste 0 996.9 -- 73
2021-02-08 11:00:00 13.1 17 Oeste 33 Oeste 0 996.8 -- 82
2021-02-08 10:00:00 12.3 19 Sudoeste 27 Sudoeste 0 996.3 -- 83
2021-02-08 09:00:00 11.7 15 Sudoeste 26 Oeste 0 995.6 -- 80
2021-02-08 08:00:00 12.5 17 Oeste 40 Noroeste 0 994.2 -- 74
2021-02-08 07:00:00 13.3 23 Oeste -- -- -- 992.7 -- 88
2021-02-08 06:00:00 13.4 46 Sudoeste 64 Sudoeste 1.1 991.9 -- 86
2021-02-08 05:00:00 12.9 32 Sudoeste 53 Sudoeste 2.8 992.9 -- 86
2021-02-08 04:00:00 13 33 Sudoeste 52 Sudoeste 2.3 994.6 -- 85
2021-02-08 03:00:00 12.7 26 Sudoeste 40 Sudoeste 0.1 995.4 -- 84
2021-02-08 02:00:00 12.3 18 Sudoeste 47 Sudoeste 0 996.7 -- 85
2021-02-08 01:00:00 11.8 19 Sudoeste 30 Sudoeste 0.1 997.9 -- 86
2021-02-08 00:00:00 12 19 Sudoeste 32 Sudoeste 0 998.5 -- 78
2021-02-07 23:00:00 11.9 12 Sudoeste 27 Oeste 0 999.3 -- 72
2021-02-07 22:00:00 12.1 16 Sudoeste 24 Sudoeste 0 999.4 -- 68
2021-02-07 21:00:00 12.1 15 Sudoeste 24 Sudoeste 0 999.7 -- 65
2021-02-07 20:00:00 12 10 Oeste 31 Oeste 0 999.7 -- 59
2021-02-07 19:00:00 12.4 12 Oeste 31 Oeste 0 999.2 -- 56
2021-02-07 18:00:00 13.1 17 Oeste 42 Oeste 0 998.8 -- 52
2021-02-07 17:00:00 14 19 Oeste 42 Oeste 0 998.3 -- 51
2021-02-07 16:00:00 14.4 19 Oeste 36 Oeste 0 997.5 -- 51
2021-02-07 15:00:00 15.1 19 Oeste 38 Sudoeste 0 997.4 -- 57
2021-02-07 14:00:00 14 14 Oeste 30 Sudoeste 0 997.5 -- 67
2021-02-07 13:00:00 13.9 14 Oeste 28 Oeste 0 997.9 -- 70
2021-02-07 12:00:00 13.5 15 Oeste 28 Oeste 0 997.8 -- 75
2021-02-07 11:00:00 12.1 16 Oeste 29 Oeste 0 997.5 -- 83
2021-02-07 10:00:00 11.2 10 Oeste 18 Sudoeste 0 996.8 -- 86
2021-02-07 09:00:00 10.6 12 Sudoeste 17 Sudoeste 0 996.2 -- 88
2021-02-07 08:00:00 10.7 8 Oeste 16 Oeste 0 995.2 -- 87
2021-02-07 07:00:00 10.6 6 Oeste 14 Oeste 0 994.8 -- 87
2021-02-07 06:00:00 10.7 5 Oeste 11 Oeste 0 994.4 -- 88
2021-02-07 05:00:00 10.6 5 Oeste 14 Sudoeste 0 994.2 -- 88
2021-02-07 04:00:00 10.6 9 Oeste 15 Sudoeste 0 994.1 -- 88
2021-02-07 03:00:00 10.5 8 Sudoeste 16 Sudoeste 0 994.1 -- 86
2021-02-07 02:00:00 10.5 10 Sudoeste 23 Oeste 0 993.9 -- 86
2021-02-07 01:00:00 10.7 15 Sudoeste 25 Sudoeste 0 993.8 -- 83
2021-02-07 00:00:00 10.5 17 Sudoeste 26 Oeste 0 993.4 -- 83
2021-02-06 23:00:00 10.6 15 Sudoeste 21 Sudoeste 0 993.3 -- 83
2021-02-06 22:00:00 10.8 14 Sudoeste 29 Sudoeste 0 992.7 -- 78
2021-02-06 21:00:00 11.6 17 Sudoeste 26 Sudoeste 0 992.2 -- 77
2021-02-06 20:00:00 12.6 18 Sudoeste 27 Sudoeste 0 991.5 -- 74
2021-02-06 19:00:00 13 14 Oeste 35 Sudoeste 0 990.7 -- 69
2021-02-06 18:00:00 13.5 21 Oeste 35 Sudoeste 0 990.3 -- 68
2021-02-06 17:00:00 14.8 24 Oeste 38 Sudoeste 0 989.9 -- 60
2021-02-06 16:00:00 15.5 20 Oeste 39 Oeste 0 989.7 -- 60
2021-02-06 15:00:00 15.3 16 Oeste 39 Sudoeste 0 989.4 -- 62
2021-02-06 14:00:00 14.6 12 Oeste 30 Sudoeste 0 989.8 -- 69
2021-02-06 13:00:00 14.8 15 Oeste 33 Oeste 0.1 990.4 -- 69
2021-02-06 12:00:00 14 14 Oeste 30 Oeste 0 990.6 -- 73
2021-02-06 11:00:00 13.6 18 Sudoeste 29 Oeste 0 990.5 -- 77
2021-02-06 10:00:00 12.2 17 Sudoeste 28 Sudoeste 0 990.4 -- 81
2021-02-06 09:00:00 11.3 10 Sudoeste 17 Sudoeste 0.4 989.9 -- 86
2021-02-06 08:00:00 10.9 11 Sudoeste 24 Sudoeste 0 989.3 -- 84
2021-02-06 07:00:00 11 15 Sudoeste 23 Sudoeste 0 988.9 -- 83
2021-02-06 06:00:00 10.7 18 Sudoeste 35 Sudoeste 0 989 -- 81
2021-02-06 05:00:00 11.2 20 Sudoeste 38 Sudoeste 0 988.7 -- 83
2021-02-06 04:00:00 12.2 17 Sudoeste 31 Sudoeste 0 988.2 -- 85
2021-02-06 03:00:00 11.4 8 Sur 18 Sur 0.9 988 -- 86
2021-02-06 02:00:00 10.9 6 Sudoeste 11 Sur 0 988.2 -- 86
2021-02-06 01:00:00 10 6 Sur 10 Sur 0.3 988.6 -- 86
2021-02-06 00:00:00 11.2 4 Sur 7 Sudoeste 0.1 988.9 -- 86
2021-02-05 23:00:00 11.5 2 Sudoeste 8 Sudeste 0 988.9 -- 85
2021-02-05 22:00:00 11.5 4 Sur 11 Sur 0 988.8 -- 83
2021-02-05 21:00:00 12.3 8 Sur 11 Sudeste 0 988.9 -- 80
2021-02-05 20:00:00 13.2 4 Sur 14 Sur 0 988.7 -- 77
2021-02-05 19:00:00 14.3 4 Sur 11 Sudeste 0 988.1 -- 79
2021-02-05 18:00:00 15.3 0 Calma 7 Norte 0 987.9 -- 73
2021-02-05 17:00:00 15.5 4 Noroeste 15 Noroeste 0 988.3 -- 76
2021-02-05 16:00:00 15.9 8 Noroeste 17 Noroeste 0 987.8 -- 73
2021-02-05 15:00:00 17.3 8 Oeste 21 Noroeste 0 987.8 -- 62
2021-02-05 14:00:00 16.4 10 Noroeste 17 Norte 0 988.7 -- 69
2021-02-05 13:00:00 15.2 7 Norte 18 Oeste 0 989.9 -- 74
2021-02-05 12:00:00 14.8 9 Oeste 15 Oeste 0 990.3 -- 80
2021-02-05 11:00:00 13 3 Sudeste 14 Oeste 0 990 -- 89
2021-02-05 10:00:00 12.1 6 Sudoeste 12 Sudoeste 0 990 -- 90
2021-02-05 09:00:00 9.7 3 Sudeste 12 Sudoeste 0 989.8 -- 89
2021-02-05 08:00:00 9 0 Calma 12 Sudoeste 0 989 -- 88
2021-02-05 07:00:00 9.6 3 Noroeste 7 Oeste 0 988.4 -- 86
2021-02-05 06:00:00 10.2 5 Oeste 7 Oeste 0 988.5 -- 86
2021-02-05 05:00:00 10.8 4 Norte 6 Norte 0 988.3 -- 85
2021-02-05 04:00:00 11.7 0 Calma 4 Noroeste 0 989 -- 85
2021-02-05 03:00:00 11.6 0 Calma 5 Nordeste 0 989.6 -- 84
2021-02-05 02:00:00 12.4 0 Calma 12 Sur 0 990.3 -- 83
2021-02-05 01:00:00 12.6 0 Calma 6 Norte 0 991.1 -- 83
2021-02-05 00:00:00 12.5 4 Noroeste 7 Sudeste 0 991.6 -- 84
2021-02-04 23:00:00 12.4 3 Sudeste 11 Sudeste 0 992 -- 84
2021-02-04 22:00:00 12.5 0 Calma 6 Sudeste 0 992 -- 81
2021-02-04 21:00:00 13 2 Sudeste 5 Sudeste 0 992.5 -- 78
2021-02-04 20:00:00 14.3 0 Calma 8 Oeste 0 993.2 -- 72
2021-02-04 19:00:00 16.1 0 Calma 9 Noroeste 0 993.3 -- 64
2021-02-04 18:00:00 17.5 3 Noroeste 23 Oeste 0 993.4 -- 58
2021-02-04 17:00:00 18.2 16 Oeste 24 Oeste 0 993.8 -- 54
2021-02-04 16:00:00 18.6 9 Oeste 24 Oeste 0 993.3 -- 53
2021-02-04 15:00:00 18.7 17 Oeste 30 Oeste 0 994.1 -- 52
2021-02-04 14:00:00 18.7 14 Oeste 27 Oeste 0 994.7 -- 53
2021-02-04 13:00:00 16.4 0 Calma 7 Este 0 995.6 -- 70
2021-02-04 12:00:00 14.1 2 Sudeste 5 Sudeste 0 996.1 -- 84
2021-02-04 11:00:00 11.9 0 Calma 6 Sudeste 0 996.1 -- 89
2021-02-04 10:00:00 10.7 3 Sur 5 Sur 0 996.2 -- 88
2021-02-04 09:00:00 11.3 0 Calma 5 Sudoeste 0 996.7 -- 89
2021-02-04 08:00:00 11.5 0 Calma 5 Sudeste 0 996.7 -- 88
2021-02-04 07:00:00 11.6 0 Calma 3 Sudeste 0 996.8 -- 88
2021-02-04 06:00:00 11.6 2 Sudoeste 8 Sur 0 997.1 -- 88
2021-02-04 05:00:00 11.5 4 Sur 5 Sur 0 997.5 -- 88
2021-02-04 04:00:00 11.8 0 Calma 6 Sudeste 0 998.5 -- 88
2021-02-04 03:00:00 11.6 0 Calma 6 Sur 0 998.9 -- 86
2021-02-04 02:00:00 11.6 2 Sur 6 Sudeste 0 999.2 -- 85
2021-02-04 01:00:00 12.1 3 Sudeste 9 Sudeste 0 999.9 -- 85
2021-02-04 00:00:00 12.9 5 Sur 14 Sudoeste 0 1000.2 -- 81
2021-02-03 23:00:00 14.2 8 Sudoeste 14 Oeste 0 1000.3 -- 81
2021-02-03 22:00:00 12.9 0 Calma 9 Sudoeste 0 1000.4 -- 80
2021-02-03 21:00:00 13 6 Sur 7 Sudoeste 0 1000.4 -- 74
2021-02-03 20:00:00 15 0 Calma 4 Sudoeste 0 1000.4 -- 69
2021-02-03 19:00:00 15.9 0 Calma 6 Oeste 0 1000.3 -- 62
2021-02-03 18:00:00 17.1 2 Oeste 11 Oeste 0 1000.2 -- 56
2021-02-03 17:00:00 17.5 6 Noroeste 15 Oeste 0 1000.5 -- 53
2021-02-03 16:00:00 18.6 4 Oeste 17 Sudoeste 0 1000.8 -- 51
2021-02-03 15:00:00 18 4 Oeste 12 Oeste 0 1001.3 -- 52
2021-02-03 14:00:00 17.7 6 Sur 12 Sur 0 1001.9 -- 54
2021-02-03 13:00:00 16.3 3 Sur 6 Sur 0 1002.9 -- 68
2021-02-03 12:00:00 13.9 2 Sudeste 6 Sudeste 0 1003.7 -- 80
2021-02-03 11:00:00 12.7 3 Sudeste 5 Sudeste 0 1003.9 -- 86
2021-02-03 10:00:00 11.4 3 Sudeste 4 Sudeste 0 1003.8 -- 88
2021-02-03 09:00:00 10.9 3 Sur 4 Sur 0 1003.4 -- 88
2021-02-03 08:00:00 10.7 3 Sudeste 4 Sudeste 0 1003.5 -- 88
2021-02-03 07:00:00 10.6 2 Sur 4 Sur 0 1003.2 -- 88
2021-02-03 06:00:00 10.4 0 Calma 5 Sur 0 1003.3 -- 88
2021-02-03 05:00:00 10.3 2 Sur 5 Sur 0 1003.4 -- 88
2021-02-03 04:00:00 10.1 3 Sur 9 Sur 0 1003.9 -- 89
2021-02-03 03:00:00 9.7 3 Sur 8 Sudeste 0 1004.1 -- 88
2021-02-03 02:00:00 9.2 2 Este 12 Noroeste 0 1004.3 -- 86
2021-02-03 01:00:00 9.4 0 Calma 7 Sudeste 0 1004.4 -- 85
2021-02-03 00:00:00 10.2 3 Sur 6 Sur 0 1004.6 -- 83
2021-02-02 23:00:00 10.8 2 Sur 7 Sudoeste 0 1004.5 -- 81
2021-02-02 22:00:00 11.7 4 Sur 6 Sudeste 0 1004.3 -- 77
2021-02-02 21:00:00 12.5 4 Sur 8 Sur 0 1004.2 -- 72
2021-02-02 20:00:00 14.7 0 Calma 6 Noroeste 0 1004 -- 64
2021-02-02 19:00:00 16.6 0 Calma 9 Norte 0 1004 -- 59
2021-02-02 18:00:00 17.5 4 Noroeste 8 Noroeste 0 1003.6 -- 54
2021-02-02 17:00:00 18.3 5 Norte 10 Norte 0 1003.5 -- 51
2021-02-02 16:00:00 18.4 3 Noroeste 7 Norte 0 1003.7 -- 53
2021-02-02 15:00:00 17.5 0 Calma 10 Oeste 0 1004.6 -- 54
2021-02-02 14:00:00 17.6 3 Sur 13 Sudeste 0 1005.3 -- 57
2021-02-02 13:00:00 16.4 2 Sur 10 Sudeste 0 1006.7 -- 64
2021-02-02 12:00:00 14.2 4 Este 8 Este 0 1007.2 -- 88
2021-02-02 11:00:00 13 0 Calma 7 Sudeste 0 1007.4 -- 90
2021-02-02 10:00:00 12.3 0 Calma 5 Sudeste 0 1007.3 -- 90
2021-02-02 09:00:00 11.9 2 Sudeste 4 Nordeste 0 1007.2 -- 90
2021-02-02 08:00:00 11.7 0 Calma 3 Nordeste 0 1007.2 -- 90
2021-02-02 07:00:00 11.6 0 Calma 3 Este 0 1007.1 -- 90
2021-02-02 06:00:00 11.4 0 Calma 5 Sur 0 1007.4 -- 90
2021-02-02 05:00:00 11.1 3 Sur 4 Sudeste 0 1007.3 -- 89
2021-02-02 04:00:00 11.1 0 Calma 3 Oeste 0 1007.3 -- 89
2021-02-02 03:00:00 10.2 0 Calma 4 Sudoeste 0 1007.4 -- 89
2021-02-02 02:00:00 9.1 0 Calma 6 Sudoeste 0 1007.5 -- 88
2021-02-02 01:00:00 9.6 0 Calma 3 Sudoeste 0 1007.6 -- 86
2021-02-02 00:00:00 10.5 0 Calma 7 Sur 0 1007.6 -- 85
2021-02-01 23:00:00 11 4 Sudeste 14 Sudoeste 0 1007.7 -- 83
2021-02-01 22:00:00 11.9 5 Sudeste 18 Sudoeste 0 1007.5 -- 79
2021-02-01 21:00:00 13.6 10 Sudoeste 29 Sudoeste 0 1007.3 -- 74
2021-02-01 20:00:00 14 13 Sudoeste 29 Sudoeste 0 1007 -- 75
2021-02-01 19:00:00 14.9 12 Sudoeste 27 Oeste 0 1006.4 -- 66
2021-02-01 18:00:00 17 16 Oeste 33 Oeste 0 1006 -- 58
2021-02-01 17:00:00 18.8 17 Oeste 31 Oeste 0 1006.1 -- 54
2021-02-01 16:00:00 18.1 16 Oeste 29 Oeste 0 1006 -- 57
2021-02-01 15:00:00 18.7 17 Noroeste 28 Oeste 0 1006.1 -- 57
2021-02-01 14:00:00 18.4 14 Oeste 26 Noroeste 0 1006.6 -- 58
2021-02-01 13:00:00 17.4 11 Oeste 24 Oeste 0 1007.3 -- 64
2021-02-01 12:00:00 16.2 13 Oeste 25 Oeste 0 1007.5 -- 73
2021-02-01 11:00:00 14.7 13 Oeste 24 Oeste 0 1007.2 -- 84
2021-02-01 10:00:00 14.3 7 Oeste 19 Oeste 0 1007 -- 88
2021-02-01 09:00:00 14.1 10 Oeste 25 Oeste 0 1006.5 -- 88
2021-02-01 08:00:00 13.9 14 Oeste 26 Oeste 0 1005.7 -- 88
2021-02-01 07:00:00 14.2 14 Oeste 27 Oeste 0 1005.3 -- 88
2021-02-01 06:00:00 14.5 16 Oeste 30 Oeste 0 1004.8 -- 88
2021-02-01 05:00:00 14.8 11 Oeste 28 Oeste 0 1005.1 -- 87
2021-02-01 04:00:00 15 15 Oeste 35 Oeste 0 1005.1 -- 86
2021-02-01 03:00:00 15.1 17 Oeste 33 Oeste 0 1005.4 -- 86
2021-02-01 02:00:00 15.1 16 Oeste 36 Sudoeste 0 1005.5 -- 86
2021-02-01 01:00:00 14.9 20 Oeste 35 Sudoeste 0 1005.4 -- 86
2021-02-01 00:00:00 14.4 21 Oeste 36 Oeste 0 1005.1 -- 85
2021-01-31 23:00:00 14.7 19 Oeste 44 Oeste 0 1005.3 -- 84
2021-01-31 22:00:00 14.6 25 Oeste 43 Oeste 0 1004.5 -- 81
2021-01-31 21:00:00 14.5 24 Oeste 42 Oeste 0 1005 -- 79
2021-01-31 20:00:00 14.9 27 Sudoeste 41 Sudoeste 0 1004.8 -- 74
2021-01-31 19:00:00 16.3 14 Oeste 33 Oeste 0 1005.3 -- 68
2021-01-31 18:00:00 16.9 10 Oeste 24 Oeste 0 1005.2 -- 63
2021-01-31 17:00:00 17.3 13 Oeste 31 Oeste 0 1005.2 -- 58
2021-01-31 16:00:00 17 21 Oeste 42 Oeste 0 1005.5 -- 58
2021-01-31 15:00:00 17.3 23 Oeste 41 Oeste 0 1005.6 -- 58
2021-01-31 14:00:00 15.6 18 Oeste 33 Oeste 0 1006.8 -- 70
2021-01-31 13:00:00 14.6 15 Oeste 29 Sudoeste 0 1007.8 -- 75
2021-01-31 12:00:00 13.5 18 Sudoeste 28 Sudoeste 0 1008.2 -- 79
2021-01-31 11:00:00 12.5 17 Sudoeste 27 Sudoeste 0 1008.3 -- 83
2021-01-31 10:00:00 11.6 18 Sudoeste 28 Oeste 0 1007.8 -- 84
2021-01-31 09:00:00 11.3 17 Sudoeste 29 Sudoeste 0 1007.3 -- 84
2021-01-31 08:00:00 10.8 21 Sudoeste 30 Sudoeste 0 1006.5 -- 84
2021-01-31 07:00:00 10.4 16 Oeste 26 Oeste 0 1006.6 -- 84
2021-01-31 06:00:00 10.2 13 Oeste 27 Oeste 0 1006.1 -- 83
2021-01-31 05:00:00 10.3 13 Oeste 26 Sudoeste 0 1006.1 -- 83
2021-01-31 04:00:00 10.5 17 Oeste 29 Oeste 0 1005.9 -- 82
2021-01-31 03:00:00 10.7 13 Oeste 30 Oeste 0 1006 -- 80
2021-01-31 02:00:00 11.1 18 Oeste 33 Oeste 0 1006.3 -- 77
2021-01-31 01:00:00 11.4 15 Oeste 30 Oeste 0 1006.2 -- 73
2021-01-31 00:00:00 11.6 14 Oeste 25 Oeste 0 1005.9 -- 69
2021-01-30 23:00:00 11.8 17 Oeste 26 Oeste 0 1005.9 -- 65
2021-01-30 22:00:00 12 16 Oeste 22 Oeste 0 1005.6 -- 64
2021-01-30 21:00:00 13.7 11 Oeste 22 Oeste 0 1005.2 -- 56
2021-01-30 20:00:00 14 10 Noroeste 21 Oeste 0 1004.8 -- 53
2021-01-30 19:00:00 15.8 12 Oeste 24 Oeste 0 1004.1 -- 46
2021-01-30 18:00:00 17.3 17 Oeste 36 Oeste 0 1003.5 -- 41
2021-01-30 17:00:00 18.1 23 Oeste 47 Oeste 0 1003.2 -- 40
2021-01-30 16:00:00 19.1 23 Oeste 36 Oeste 0 1003.2 -- 43
2021-01-30 15:00:00 18.5 20 Oeste 34 Noroeste 0 1003.7 -- 49
2021-01-30 14:00:00 17.9 22 Oeste 37 Oeste 0 1004.5 -- 57
2021-01-30 13:00:00 17.4 24 Oeste 42 Oeste 0 1005.3 -- 68
2021-01-30 12:00:00 15.9 27 Oeste 41 Oeste 0.1 1005.6 -- 81
2021-01-30 11:00:00 14.8 17 Oeste 35 Sudoeste 0 1005.4 -- 86
2021-01-30 10:00:00 13.9 18 Sudoeste 26 Sudoeste 0.1 1005.7 -- 86
2021-01-30 09:00:00 13.4 18 Sudoeste 25 Sudoeste 0 1005.6 -- 84
2021-01-30 08:00:00 13 16 Sudoeste 30 Oeste 0 1006 -- 84
2021-01-30 07:00:00 13 20 Oeste 31 Oeste 0 1006.5 -- 84
2021-01-30 06:00:00 13.5 13 Oeste 27 Oeste 0 1006.4 -- 84
2021-01-30 05:00:00 13.8 10 Oeste 19 Sudoeste 0 1006.4 -- 84
2021-01-30 04:00:00 13.5 9 Sudoeste 14 Oeste 0 1006.3 -- 86
2021-01-30 03:00:00 13.7 7 Sudoeste 10 Sur 0 1006.9 -- 86
2021-01-30 02:00:00 13.7 7 Sudoeste 13 Sudoeste 0 1007.6 -- 85
2021-01-30 01:00:00 13.8 9 Oeste 17 Sudoeste 0 1008.7 -- 85
2021-01-30 00:00:00 13.9 8 Sudoeste 13 Sudoeste 0.1 1008.7 -- 88